createdAt,value
2023-05-05T00:01:33.388Z,12.04
2023-05-05T00:04:01.123Z,12.02
2023-05-05T00:06:31.885Z,12.02
2023-05-05T00:08:59.043Z,12.03
2023-05-05T00:11:26.303Z,12.03
2023-05-05T00:13:53.679Z,12.01
2023-05-05T00:16:20.933Z,11.96
2023-05-05T00:18:48.201Z,11.91
2023-05-05T00:21:15.839Z,11.87
2023-05-05T00:23:43.135Z,11.84
2023-05-05T00:26:10.330Z,11.81
2023-05-05T00:28:38.777Z,11.77
2023-05-05T00:31:06.415Z,11.71
2023-05-05T00:33:33.656Z,11.70
2023-05-05T00:36:00.807Z,11.73
2023-05-05T00:38:28.236Z,11.77
2023-05-05T00:40:55.481Z,11.80
2023-05-05T00:43:22.686Z,11.82
2023-05-05T00:45:57.443Z,11.82
2023-05-05T00:48:26.018Z,11.80
2023-05-05T00:50:53.540Z,11.74
2023-05-05T00:53:20.919Z,11.69
2023-05-05T00:55:48.194Z,11.66
2023-05-05T00:58:15.429Z,11.63
2023-05-05T01:00:42.983Z,11.59
2023-05-05T01:03:10.677Z,11.56
2023-05-05T01:05:47.453Z,11.56
2023-05-05T01:08:27.037Z,11.54
2023-05-05T01:11:01.956Z,11.51
2023-05-05T01:13:58.708Z,11.47
2023-05-05T01:16:29.918Z,11.41
2023-05-05T01:19:16.330Z,11.37
2023-05-05T01:21:50.046Z,11.33
2023-05-05T01:24:42.408Z,11.30
2023-05-05T01:27:34.434Z,11.24
2023-05-05T01:30:36.175Z,11.23
2023-05-05T01:33:10.945Z,11.19
2023-05-05T01:35:43.841Z,11.16
2023-05-05T01:38:23.242Z,11.13
2023-05-05T01:40:57.881Z,11.11
2023-05-05T01:43:29.801Z,11.07
2023-05-05T01:46:00.469Z,11.02
2023-05-05T01:48:30.109Z,10.99
2023-05-05T01:50:59.204Z,10.94
2023-05-05T01:53:27.659Z,10.90
2023-05-05T01:55:56.986Z,10.85
2023-05-05T01:58:26.283Z,10.81
2023-05-05T02:00:57.214Z,10.77
2023-05-05T02:03:27.186Z,10.73
2023-05-05T02:05:55.485Z,10.69
2023-05-05T02:08:25.005Z,10.65
2023-05-05T02:10:54.562Z,10.60
2023-05-05T02:13:23.954Z,10.56
2023-05-05T02:15:52.467Z,10.50
2023-05-05T02:18:21.272Z,10.45
2023-05-05T02:20:48.837Z,10.41
2023-05-05T06:17:13.490Z,23.69
2023-05-05T06:19:42.255Z,23.85
2023-05-05T06:22:09.792Z,24.04
2023-05-05T06:24:37.391Z,24.21
2023-05-05T06:27:04.537Z,24.44
2023-05-05T06:29:31.597Z,24.63
2023-05-05T06:32:00.477Z,24.74
2023-05-05T06:34:27.569Z,24.89
2023-05-05T06:36:54.615Z,25.03
2023-05-05T06:39:21.624Z,25.17
2023-05-05T06:41:48.665Z,25.32
2023-05-05T06:44:15.743Z,25.39
2023-05-05T06:46:43.996Z,25.34
2023-05-05T06:49:11.179Z,25.36
2023-05-05T06:51:38.556Z,25.47
2023-05-05T06:54:06.770Z,25.20
2023-05-05T06:56:33.799Z,25.12
2023-05-05T06:59:00.823Z,25.09
2023-05-05T07:01:27.975Z,25.10
2023-05-05T07:03:55.106Z,25.19
2023-05-05T07:06:22.342Z,25.31
2023-05-05T07:08:49.357Z,25.46
2023-05-05T07:11:16.462Z,25.60
2023-05-05T07:13:43.601Z,25.74
2023-05-05T07:16:10.673Z,25.90
2023-05-05T07:18:37.793Z,26.09
2023-05-05T07:21:06.763Z,26.17
2023-05-05T07:23:34.469Z,26.21
2023-05-05T07:26:01.567Z,26.27
2023-05-05T07:28:28.637Z,26.34
2023-05-05T07:30:55.778Z,26.43
2023-05-05T07:33:22.832Z,26.55
2023-05-05T07:35:49.874Z,26.57
2023-05-05T07:38:17.143Z,26.49
2023-05-05T07:40:44.149Z,26.45
2023-05-05T07:43:11.320Z,26.49
2023-05-05T07:45:38.457Z,26.60
2023-05-05T07:48:05.590Z,26.73
2023-05-05T07:50:32.920Z,26.82
2023-05-05T07:53:10.889Z,26.99
2023-05-05T07:55:41.650Z,27.48
2023-05-05T07:58:10.999Z,27.17
2023-05-05T08:00:38.689Z,26.92
2023-05-05T08:03:06.641Z,26.83
2023-05-05T08:05:34.896Z,26.84
2023-05-05T08:08:02.008Z,26.85
2023-05-05T08:10:29.081Z,26.87
2023-05-05T08:12:56.199Z,26.86
2023-05-05T08:15:23.275Z,26.89
2023-05-05T08:17:52.762Z,26.92
2023-05-05T08:20:21.280Z,27.00
2023-05-05T08:22:50.220Z,27.06
2023-05-05T08:25:17.231Z,27.09
2023-05-05T08:27:44.758Z,27.07
2023-05-05T08:30:12.107Z,26.99
2023-05-05T08:32:39.286Z,26.91
2023-05-05T08:35:07.272Z,26.95
2023-05-05T08:37:34.880Z,27.05
2023-05-05T08:40:01.915Z,27.12
2023-05-05T08:42:38.170Z,27.07
2023-05-05T08:45:10.360Z,26.84
2023-05-05T08:47:39.549Z,26.92
2023-05-05T08:50:10.252Z,27.04
2023-05-05T08:52:44.164Z,26.88
2023-05-05T08:55:26.765Z,26.61
2023-05-05T08:57:58.501Z,26.48
2023-05-05T09:00:29.680Z,26.47
2023-05-05T09:02:58.596Z,26.47
2023-05-05T09:05:26.707Z,26.66
2023-05-05T09:07:53.829Z,26.53
2023-05-05T09:10:21.139Z,26.40
2023-05-05T09:12:51.299Z,26.33
2023-05-05T09:15:18.783Z,26.30
2023-05-05T09:17:46.079Z,26.32
2023-05-05T09:20:14.944Z,26.29
2023-05-05T09:22:48.067Z,26.24
2023-05-05T09:25:17.052Z,26.19
2023-05-05T09:27:46.259Z,26.35
2023-05-05T09:30:31.603Z,26.38
2023-05-05T09:33:00.597Z,26.20
2023-05-05T09:35:28.108Z,26.18
2023-05-05T09:37:55.364Z,26.17
2023-05-05T09:40:22.522Z,26.14
2023-05-05T09:43:01.384Z,26.10
2023-05-05T09:50:02.450Z,26.09
2023-05-05T09:52:30.971Z,26.09
2023-05-05T09:59:12.254Z,26.04
2023-05-05T10:01:39.698Z,25.99
2023-05-05T10:08:31.594Z,25.95
2023-05-05T10:11:07.380Z,25.89
2023-05-05T10:13:42.275Z,25.87
2023-05-05T10:16:11.522Z,26.22
2023-05-05T10:18:46.547Z,26.45
2023-05-05T10:21:18.316Z,26.52
2023-05-05T10:23:55.115Z,26.53
2023-05-05T10:26:23.517Z,26.32
2023-05-05T10:33:00.833Z,26.30
2023-05-05T10:35:36.078Z,26.26
2023-05-05T10:38:07.920Z,26.17
2023-05-05T10:40:35.129Z,26.12
2023-05-05T10:43:02.786Z,26.14
2023-05-05T10:45:31.004Z,26.17
2023-05-05T10:48:01.552Z,26.16
2023-05-05T10:50:39.023Z,26.21
2023-05-05T10:57:39.580Z,26.55
2023-05-05T11:00:09.156Z,26.67
2023-05-05T11:02:37.372Z,26.73
2023-05-05T11:05:23.818Z,26.77
2023-05-05T11:07:51.725Z,26.83
2023-05-05T11:10:21.110Z,26.88
2023-05-05T11:12:55.035Z,26.96
2023-05-05T11:15:28.148Z,27.03
2023-05-05T11:18:00.113Z,26.95
2023-05-05T11:20:36.916Z,26.83
2023-05-05T11:23:04.091Z,26.74
2023-05-05T11:25:38.161Z,26.66
2023-05-05T11:28:12.538Z,26.56
2023-05-05T11:30:55.182Z,26.51
2023-05-05T11:33:37.313Z,26.45
2023-05-05T11:36:06.674Z,26.38
2023-05-05T11:38:51.193Z,26.33
2023-05-05T11:41:52.556Z,26.26
2023-05-05T11:44:21.164Z,26.17
2023-05-05T11:46:51.360Z,26.04
2023-05-05T11:49:36.392Z,25.91
2023-05-05T11:52:14.862Z,25.88
2023-05-05T11:54:50.559Z,25.92
2023-05-05T11:57:23.558Z,25.96
2023-05-05T11:59:54.178Z,25.97
2023-05-05T12:02:22.363Z,26.01
2023-05-05T12:04:50.059Z,26.09
2023-05-05T12:07:18.880Z,26.14
2023-05-05T12:09:47.702Z,26.09
2023-05-05T12:12:16.088Z,25.97
2023-05-05T12:14:52.126Z,25.88
2023-05-05T12:17:23.662Z,25.84
2023-05-05T12:19:52.228Z,25.75
2023-05-05T12:22:25.474Z,25.73
2023-05-05T12:24:57.977Z,25.73
2023-05-05T12:27:25.604Z,25.67
2023-05-05T12:29:55.402Z,25.67
2023-05-05T12:32:25.584Z,25.69
2023-05-05T12:34:54.619Z,25.76
2023-05-05T12:37:23.135Z,25.83
2023-05-05T12:39:51.222Z,25.88
2023-05-05T12:42:19.110Z,25.87
2023-05-05T12:44:47.004Z,25.85
2023-05-05T12:47:15.037Z,25.86
2023-05-05T12:49:52.187Z,25.87
2023-05-05T12:52:19.382Z,25.88
2023-05-05T12:54:54.953Z,25.88
2023-05-05T12:57:23.276Z,25.79
2023-05-05T12:59:51.910Z,25.66
2023-05-05T13:02:20.330Z,25.56
2023-05-05T13:04:54.697Z,25.49
2023-05-05T13:07:22.592Z,25.45
2023-05-05T13:09:50.934Z,25.45
2023-05-05T13:12:18.632Z,25.50
2023-05-05T13:14:46.936Z,25.55
2023-05-05T13:17:14.831Z,25.57
2023-05-05T13:19:42.162Z,25.55
2023-05-05T13:22:13.269Z,25.53
2023-05-05T13:24:51.699Z,25.49
2023-05-05T13:27:20.795Z,25.44
2023-05-05T13:29:48.128Z,25.40
2023-05-05T13:32:15.249Z,25.39
2023-05-05T13:34:43.745Z,25.36
2023-05-05T13:37:10.911Z,25.32
2023-05-05T13:39:37.994Z,25.29
2023-05-05T13:42:05.016Z,25.24
2023-05-05T13:44:32.172Z,25.17
2023-05-05T13:46:59.363Z,25.13
2023-05-05T13:49:27.213Z,25.08
2023-05-05T13:51:55.353Z,25.04
2023-05-05T13:54:22.359Z,25.00
2023-05-05T13:56:49.381Z,24.96
2023-05-05T13:59:16.380Z,24.96
2023-05-05T14:01:43.381Z,24.95
2023-05-05T14:04:10.531Z,24.90
2023-05-05T14:09:18.440Z,24.78
2023-05-05T14:11:47.911Z,24.70
2023-05-05T14:14:14.942Z,24.64
2023-05-05T14:16:42.413Z,24.61
2023-05-05T14:19:09.440Z,24.59
2023-05-05T14:21:36.779Z,24.60
2023-05-05T14:24:03.979Z,24.62
2023-05-05T14:26:31.011Z,24.61
2023-05-05T14:28:58.075Z,24.56
2023-05-05T14:31:25.170Z,24.54
2023-05-05T14:33:53.603Z,24.52
2023-05-05T14:36:20.833Z,24.46
2023-05-05T14:38:47.891Z,24.40
2023-05-05T14:41:15.090Z,24.32
2023-05-05T14:43:42.288Z,24.23
2023-05-05T14:46:09.471Z,24.13
2023-05-05T14:48:36.740Z,24.05
2023-05-05T14:51:04.979Z,23.97
2023-05-05T14:53:32.834Z,23.92
2023-05-05T14:56:02.518Z,23.89
2023-05-05T14:58:29.669Z,23.87
2023-05-05T15:00:56.998Z,23.84
2023-05-05T15:03:24.218Z,23.81
2023-05-05T15:05:51.364Z,23.80
2023-05-05T15:08:21.431Z,23.80
2023-05-05T15:10:48.541Z,23.80
2023-05-05T15:13:15.784Z,23.81
2023-05-05T15:15:43.209Z,23.82
2023-05-05T15:18:10.445Z,23.83
2023-05-05T15:20:37.657Z,23.84
2023-05-05T15:23:07.235Z,23.87
2023-05-05T15:25:34.426Z,23.90
2023-05-05T15:28:01.492Z,23.93
2023-05-05T15:30:29.581Z,23.94
2023-05-05T15:32:56.919Z,23.96
2023-05-05T15:35:25.915Z,23.98
2023-05-05T15:37:56.149Z,24.01
2023-05-05T15:40:23.644Z,24.03
2023-05-05T15:42:50.708Z,24.04
2023-05-05T15:45:17.960Z,24.03
2023-05-05T15:47:46.390Z,24.01
2023-05-05T15:50:14.317Z,23.98
2023-05-05T15:52:41.672Z,23.96
2023-05-05T15:55:09.796Z,23.93
2023-05-05T15:57:39.894Z,23.90
2023-05-05T16:00:08.677Z,23.86
2023-05-05T16:02:35.910Z,23.78
2023-05-05T16:05:03.023Z,23.69
2023-05-05T16:07:30.086Z,23.60
2023-05-05T16:09:57.503Z,23.51
2023-05-05T16:12:24.683Z,23.41
2023-05-05T16:14:51.785Z,23.29
2023-05-05T16:17:20.318Z,23.17
2023-05-05T16:19:48.958Z,23.05
2023-05-05T16:22:16.437Z,22.90
2023-05-05T16:24:44.432Z,22.78
2023-05-05T16:27:13.948Z,22.63
2023-05-05T16:29:41.469Z,22.50
2023-05-05T16:32:08.656Z,22.36
2023-05-05T16:34:35.717Z,22.22
2023-05-05T16:37:03.069Z,22.09
2023-05-05T16:39:30.221Z,21.95
2023-05-05T16:41:57.468Z,21.83
2023-05-05T16:44:25.000Z,21.72
2023-05-05T16:46:52.328Z,21.58
2023-05-05T16:49:19.379Z,21.41
2023-05-05T16:51:46.430Z,21.21
2023-05-05T16:54:13.551Z,21.00
2023-05-05T16:56:40.680Z,20.86
2023-05-05T16:59:07.933Z,20.75
2023-05-05T17:01:35.419Z,20.64
2023-05-05T17:04:02.816Z,20.49
2023-05-05T17:06:33.586Z,20.33
2023-05-05T17:09:00.711Z,20.18
2023-05-05T17:11:27.785Z,20.08
2023-05-05T17:13:57.042Z,20.03
2023-05-05T17:16:24.853Z,19.96
2023-05-05T17:18:54.168Z,19.91
2023-05-05T17:21:21.296Z,19.89
2023-05-05T17:23:48.359Z,19.85
2023-05-05T17:26:15.956Z,19.84
2023-05-05T17:28:42.946Z,19.83
2023-05-05T17:31:10.518Z,19.82
2023-05-05T17:33:37.829Z,19.81
2023-05-05T17:36:05.584Z,19.79
2023-05-05T17:38:32.799Z,19.77
2023-05-05T17:40:59.822Z,19.75
2023-05-05T17:43:27.170Z,19.72
2023-05-05T17:45:54.333Z,19.68
2023-05-05T17:48:21.421Z,19.62
2023-05-05T17:50:48.978Z,19.57
2023-05-05T17:53:16.242Z,19.53
2023-05-05T17:55:46.729Z,19.51
2023-05-05T17:58:14.243Z,19.49
2023-05-05T18:00:41.311Z,19.44
2023-05-05T18:03:08.451Z,19.37
2023-05-05T18:05:35.835Z,19.29
2023-05-05T18:08:03.314Z,19.21
2023-05-05T18:10:30.486Z,19.12
2023-05-05T18:12:57.533Z,19.02
2023-05-05T18:15:24.947Z,18.92
2023-05-05T18:17:52.105Z,18.80
2023-05-05T18:20:19.227Z,18.67
2023-05-05T18:22:46.973Z,18.57
2023-05-05T18:25:14.410Z,18.52
2023-05-05T18:27:41.783Z,18.41
2023-05-05T18:30:09.186Z,18.30
2023-05-05T18:32:36.240Z,18.17
2023-05-05T18:35:04.048Z,18.05
2023-05-05T18:37:31.896Z,18.02
2023-05-05T18:39:58.899Z,18.01
2023-05-05T18:42:26.028Z,18.00
2023-05-05T18:44:53.027Z,17.97
2023-05-05T18:47:20.635Z,17.95
2023-05-05T18:49:48.119Z,17.94
2023-05-05T18:52:15.850Z,17.92
2023-05-05T18:54:43.183Z,17.89
2023-05-05T18:57:10.268Z,17.89
2023-05-05T18:59:37.671Z,17.89
2023-05-05T19:02:04.843Z,17.90
2023-05-05T19:04:32.977Z,17.90
2023-05-05T19:07:00.534Z,17.90
2023-05-05T19:09:28.246Z,17.90
2023-05-05T19:11:55.627Z,17.89
2023-05-05T19:14:23.291Z,17.85
2023-05-05T19:16:50.575Z,17.80
2023-05-05T19:19:17.917Z,17.77
2023-05-05T19:21:44.925Z,17.73
2023-05-05T19:24:12.019Z,17.69
2023-05-05T19:26:39.295Z,17.67
2023-05-05T19:29:06.551Z,17.66
2023-05-05T19:31:33.982Z,17.63
2023-05-05T19:34:02.987Z,17.61
2023-05-05T19:36:34.276Z,17.58
2023-05-05T19:39:03.165Z,17.56
2023-05-05T19:41:31.217Z,17.55
2023-05-05T19:43:58.413Z,17.54
2023-05-05T19:46:28.384Z,17.53
2023-05-05T19:48:55.927Z,17.50
2023-05-05T19:51:23.077Z,17.45
2023-05-05T19:53:50.976Z,17.43
2023-05-05T19:56:18.311Z,17.39
2023-05-05T19:58:59.323Z,17.36
2023-05-05T20:01:28.496Z,17.31
2023-05-05T20:03:56.998Z,17.27
2023-05-05T20:06:24.676Z,17.25
2023-05-05T20:08:52.507Z,17.22
2023-05-05T20:11:21.300Z,17.18
2023-05-05T20:13:50.127Z,17.12
2023-05-05T20:16:17.865Z,17.08
2023-05-05T20:18:44.958Z,17.04
2023-05-05T20:21:12.009Z,17.02
2023-05-05T20:23:39.687Z,16.99
2023-05-05T20:26:07.817Z,16.97
2023-05-05T20:28:35.674Z,16.96
2023-05-05T20:31:02.907Z,16.96
2023-05-05T20:33:30.076Z,16.95
2023-05-05T20:35:57.199Z,16.94
2023-05-05T20:38:24.280Z,16.91
2023-05-05T20:40:52.486Z,16.89
2023-05-05T20:43:19.786Z,16.83
2023-05-05T20:45:47.253Z,16.76
2023-05-05T20:48:14.462Z,16.71
2023-05-05T20:50:42.133Z,16.65
2023-05-05T20:53:10.520Z,16.57
2023-05-05T20:55:37.848Z,16.51
2023-05-05T20:58:05.522Z,16.45
2023-05-05T21:00:32.557Z,16.40
2023-05-05T21:02:59.961Z,16.33
2023-05-05T21:05:27.126Z,16.28
2023-05-05T21:07:54.741Z,16.23
2023-05-05T21:10:21.960Z,16.18
2023-05-05T21:12:48.997Z,16.10
2023-05-05T21:15:17.008Z,15.96
2023-05-05T21:17:44.248Z,15.77
2023-05-05T21:20:14.492Z,15.61
2023-05-05T21:22:41.561Z,15.43
2023-05-05T21:25:16.452Z,15.30
2023-05-05T21:27:44.170Z,15.20
2023-05-05T21:30:12.172Z,15.11
2023-05-05T21:32:40.140Z,15.02
2023-05-05T21:35:08.866Z,14.90
2023-05-05T21:37:38.764Z,14.81
2023-05-05T21:40:11.084Z,14.74
2023-05-05T21:42:38.415Z,14.69
2023-05-05T21:45:06.281Z,14.64
2023-05-05T21:47:33.466Z,14.61
2023-05-05T21:50:00.498Z,14.58
2023-05-05T21:52:27.862Z,14.57
2023-05-05T21:54:57.996Z,14.55
2023-05-05T21:57:25.477Z,14.53
2023-05-05T21:59:52.528Z,14.51
2023-05-05T22:02:19.678Z,14.48
2023-05-05T22:04:48.933Z,14.43
2023-05-05T22:07:16.166Z,14.36
2023-05-05T22:09:45.999Z,14.33
2023-05-05T22:12:13.541Z,14.31
2023-05-05T22:14:40.658Z,14.28
2023-05-05T22:17:08.483Z,14.27
2023-05-05T22:19:36.019Z,14.25
2023-05-05T22:22:03.250Z,14.21
2023-05-05T22:24:30.626Z,14.20
2023-05-05T22:26:58.463Z,14.19
2023-05-05T22:29:25.555Z,14.12
2023-05-05T22:31:52.944Z,14.08
2023-05-05T22:34:22.067Z,14.05
2023-05-05T22:36:50.082Z,13.94
2023-05-05T22:39:18.804Z,13.85
2023-05-05T22:41:46.377Z,13.79
2023-05-05T22:44:13.773Z,13.74
2023-05-05T22:46:41.187Z,13.71
2023-05-05T22:49:08.927Z,13.69
2023-05-05T22:51:36.014Z,13.64
2023-05-05T22:54:03.546Z,13.62
2023-05-05T22:56:30.629Z,13.60
2023-05-05T22:58:58.061Z,13.55
2023-05-05T23:01:25.934Z,13.51
2023-05-05T23:03:53.048Z,13.46
2023-05-05T23:06:20.100Z,13.39
2023-05-05T23:08:47.192Z,13.30
2023-05-05T23:11:14.228Z,13.22
2023-05-05T23:13:41.709Z,13.16
2023-05-05T23:16:09.328Z,13.16
2023-05-05T23:18:36.638Z,13.15
2023-05-05T23:21:03.902Z,13.15
2023-05-05T23:23:31.339Z,13.19
2023-05-05T23:25:58.724Z,13.22
2023-05-05T23:28:25.825Z,13.27
2023-05-05T23:30:53.268Z,13.32
2023-05-05T23:33:20.393Z,13.37
2023-05-05T23:35:48.499Z,13.43
2023-05-05T23:38:16.273Z,13.48
2023-05-05T23:40:43.345Z,13.51
2023-05-05T23:43:12.302Z,13.52
2023-05-05T23:45:40.544Z,13.52
2023-05-05T23:48:08.294Z,13.52
2023-05-05T23:50:35.581Z,13.53
2023-05-05T23:53:02.764Z,13.54
2023-05-05T23:55:32.026Z,13.56
2023-05-05T23:57:59.239Z,13.59
